Time;durP1;ratioP1;P1;durP2;ratioP2;P2;SDS_P1;SDS_P2;PMS_P1;PMS_P2;Temp;Humidity;BMP_temperature;BMP_pressure;BME280_temperature;BME280_humidity;BME280_pressure;Samples;Min_cycle;Max_cycle;Signal;HPM_P1;HPM_P2
2023/03/30 00:01:13;;;;;;;1.97;1.70;;;14.90;99.90;;;15.21;nan;100130.50;4916962;29;20624;-67
2023/03/30 00:03:44;;;;;;;2.10;1.37;;;15.00;99.90;;;15.22;nan;100127.72;4915833;29;20669;-66
2023/03/30 00:06:19;;;;;;;2.37;1.87;;;15.00;99.90;;;15.21;nan;100123.44;4909004;29;20689;-67
2023/03/30 00:08:48;;;;;;;1.87;1.63;;;14.90;99.90;;;15.17;nan;100121.25;4914788;29;20672;-66
2023/03/30 00:11:16;;;;;;;2.63;1.50;;;14.90;99.90;;;15.15;nan;100125.84;4915026;29;21157;-67
2023/03/30 00:13:43;;;;;;;2.97;1.90;;;14.90;99.90;;;15.14;nan;100121.59;4916363;29;20680;-65
2023/03/30 00:16:13;;;;;;;1.77;1.67;;;14.90;99.90;;;15.13;nan;100123.38;4917003;29;20632;-65
2023/03/30 00:18:40;;;;;;;1.63;1.53;;;14.90;99.90;;;15.14;nan;100108.44;4916719;29;21025;-67
2023/03/30 00:21:11;;;;;;;1.63;1.33;;;14.90;99.90;;;15.20;nan;100106.03;4930585;29;20726;-66
2023/03/30 00:23:39;;;;;;;2.50;1.20;;;15.00;99.90;;;15.28;nan;100102.63;4916867;29;20672;-67
2023/03/30 00:26:06;;;;;;;1.20;1.10;;;15.10;99.90;;;15.31;nan;100103.13;4915711;29;20676;-66
2023/03/30 00:28:33;;;;;;;2.87;1.10;;;15.10;99.90;;;15.35;nan;100107.13;4915429;29;20678;-65
2023/03/30 00:31:00;;;;;;;1.30;1.17;;;15.10;99.90;;;15.38;nan;100098.94;4930911;29;20641;-65
2023/03/30 00:33:28;;;;;;;1.23;1.23;;;15.10;99.90;;;15.35;nan;100095.78;4915548;29;21168;-65
2023/03/30 00:36:10;;;;;;;2.90;1.33;;;15.10;99.90;;;15.35;nan;100104.47;4915871;29;20642;-66
2023/03/30 00:38:37;;;;;;;1.93;1.23;;;15.10;99.90;;;15.40;nan;100101.41;4916182;29;21136;-65
2023/03/30 00:41:05;;;;;;;4.97;1.40;;;15.10;99.90;;;15.43;nan;100101.97;4914118;29;20624;-66
2023/03/30 00:43:33;;;;;;;1.27;1.07;;;15.20;99.90;;;15.44;nan;100100.97;4915021;29;20700;-65
2023/03/30 00:45:59;;;;;;;2.07;1.13;;;15.20;99.90;;;15.42;nan;100100.28;4916712;29;20640;-64
2023/03/30 00:48:37;;;;;;;3.47;1.30;;;15.20;99.90;;;15.43;nan;100106.41;4913388;29;20673;-65
2023/03/30 00:51:09;;;;;;;4.93;1.67;;;15.20;99.90;;;15.40;nan;100096.97;4912905;29;20638;-66
2023/03/30 00:53:51;;;;;;;4.83;1.50;;;15.20;99.90;;;15.40;nan;100089.09;4913969;29;20634;-66
2023/03/30 00:56:26;;;;;;;4.20;1.50;;;15.20;99.90;;;15.46;nan;100091.13;4928370;29;20630;-66
2023/03/30 00:58:53;;;;;;;4.27;1.57;;;15.20;99.90;;;15.51;nan;100088.88;4925779;29;20752;-66
2023/03/30 01:01:30;;;;;;;2.40;1.40;;;15.20;99.90;;;15.54;nan;100096.44;4921336;29;20656;-67
2023/03/30 01:04:04;;;;;;;8.60;1.60;;;15.30;99.90;;;15.50;nan;100105.59;4925162;29;20629;-67
2023/03/30 01:06:33;;;;;;;4.27;1.90;;;15.20;99.90;;;15.50;nan;100092.47;4915103;29;20625;-66
2023/03/30 01:09:00;;;;;;;1.53;1.10;;;15.20;99.90;;;15.46;nan;100095.59;4930399;29;20713;-64
2023/03/30 01:11:27;;;;;;;3.13;1.43;;;15.20;99.90;;;15.45;nan;100093.91;4916210;29;20622;-65
2023/03/30 01:14:02;;;;;;;4.87;1.70;;;15.20;99.90;;;15.42;nan;100095.00;4914572;29;21341;-66
2023/03/30 01:17:03;;;;;;;1.23;1.17;;;15.20;99.90;;;15.42;nan;100096.81;4915256;29;20640;-65
2023/03/30 01:20:17;;;;;;;4.20;1.57;;;15.20;99.90;;;15.42;nan;100115.22;4925846;29;21214;-66
2023/03/30 01:23:04;;;;;;;3.20;1.50;;;15.20;99.90;;;15.39;nan;100112.91;4910831;29;21222;-65
2023/03/30 01:26:12;;;;;;;3.30;2.13;;;15.10;99.90;;;15.29;nan;100107.72;4909274;29;20641;-65
2023/03/30 01:28:52;;;;;;;0.90;0.90;;;15.00;99.90;;;15.22;nan;100108.50;4914039;29;20681;-66
2023/03/30 01:31:40;;;;;;;3.83;1.80;;;15.00;99.90;;;15.23;nan;100095.19;4929745;29;21071;-65
2023/03/30 01:34:19;;;;;;;2.80;1.33;;;15.00;99.90;;;15.20;nan;100092.06;4913333;29;20641;-67
2023/03/30 01:37:05;;;;;;;2.60;1.20;;;15.00;99.90;;;15.18;nan;100092.19;4913091;29;20681;-66
2023/03/30 01:40:07;;;;;;;3.60;1.47;;;14.90;99.90;;;15.16;nan;100094.16;4912922;29;21968;-66
2023/03/30 01:43:14;;;;;;;2.27;1.40;;;14.90;99.90;;;15.20;nan;100108.66;4905356;29;21051;-66
2023/03/30 01:46:13;;;;;;;5.53;1.40;;;14.90;99.90;;;15.22;nan;100104.09;4911044;29;20639;-66
2023/03/30 01:48:48;;;;;;;5.47;1.50;;;15.00;99.90;;;15.21;nan;100097.16;4927953;29;20720;-66
2023/03/30 01:51:32;;;;;;;4.73;1.10;;;15.00;99.90;;;15.24;nan;100094.25;4928085;29;20643;-67
2023/03/30 01:54:09;;;;;;;2.80;1.40;;;15.00;99.90;;;15.26;nan;100099.34;4936029;29;21258;-66
2023/03/30 01:56:40;;;;;;;1.07;0.97;;;15.00;99.90;;;15.25;nan;100095.88;4928739;29;20632;-66
2023/03/30 01:59:15;;;;;;;2.63;1.57;;;15.00;99.90;;;15.30;nan;100103.31;4929286;29;20658;-66
2023/03/30 02:01:48;;;;;;;2.07;1.20;;;15.00;99.90;;;15.32;nan;100109.22;4929186;29;20641;-67
2023/03/30 02:04:21;;;;;;;7.73;1.20;;;15.00;99.90;;;15.32;nan;100120.56;4928719;29;20610;-66
2023/03/30 02:06:58;;;;;;;3.23;1.77;;;15.00;99.90;;;15.34;nan;100129.13;4909112;29;20639;-67
2023/03/30 02:09:26;;;;;;;4.90;2.20;;;15.00;99.90;;;15.35;nan;100116.81;4909902;29;20666;-66
2023/03/30 02:11:54;;;;;;;3.60;1.47;;;15.00;99.90;;;15.33;nan;100121.41;4909141;29;20649;-65
2023/03/30 02:14:29;;;;;;;1.40;1.30;;;15.10;99.90;;;15.35;nan;100115.00;4906920;29;20691;-65
2023/03/30 02:17:10;;;;;;;2.50;1.27;;;15.10;99.90;;;15.34;nan;100100.22;4925022;29;20661;-66
2023/03/30 02:19:37;;;;;;;6.50;1.40;;;15.10;99.90;;;15.33;nan;100089.88;4928018;29;20678;-67
2023/03/30 02:22:05;;;;;;;5.97;1.57;;;15.10;99.90;;;15.36;nan;100056.19;4913595;29;20712;-66
2023/03/30 02:24:34;;;;;;;2.13;1.43;;;15.10;99.90;;;15.37;nan;100070.19;4929658;29;20636;-66
2023/03/30 02:27:01;;;;;;;4.83;1.30;;;15.10;99.90;;;15.35;nan;100082.66;4928150;29;20618;-66
2023/03/30 02:29:30;;;;;;;1.57;1.47;;;15.10;99.90;;;15.35;nan;100093.16;4909142;29;20719;-65
2023/03/30 02:31:59;;;;;;;4.33;1.23;;;15.10;99.90;;;15.32;nan;100096.09;4894729;29;20704;-65
2023/03/30 02:34:50;;;;;;;3.80;1.70;;;15.00;99.90;;;15.33;nan;100124.84;4910295;29;20645;-65
2023/03/30 02:37:46;;;;;;;5.13;1.70;;;15.10;99.90;;;15.34;nan;100126.50;4917817;29;20681;-65
2023/03/30 02:40:39;;;;;;;7.03;1.63;;;15.10;99.90;;;15.35;nan;100112.38;4932928;29;21091;-65
2023/03/30 02:43:40;;;;;;;2.40;1.97;;;15.10;99.90;;;15.42;nan;100097.66;4917501;29;20641;-66
2023/03/30 02:46:45;;;;;;;5.07;2.00;;;15.20;99.90;;;15.48;nan;100083.91;4918321;29;20617;-66
2023/03/30 02:49:50;;;;;;;6.33;1.73;;;15.20;99.90;;;15.53;nan;100065.03;4903797;29;20673;-66
2023/03/30 02:52:32;;;;;;;3.30;1.67;;;15.20;99.90;;;15.56;nan;100071.81;4909724;29;20637;-66
2023/03/30 02:55:33;;;;;;;11.40;1.23;;;15.30;99.90;;;15.59;nan;100084.66;4916745;29;20634;-67
2023/03/30 02:58:11;;;;;;;5.07;1.43;;;15.30;99.90;;;15.66;nan;100096.19;4897673;29;20678;-66
2023/03/30 03:00:51;;;;;;;6.53;2.07;;;15.40;99.90;;;15.69;nan;100107.22;4916335;29;20634;-66
2023/03/30 03:03:34;;;;;;;2.47;1.93;;;15.40;99.90;;;15.72;nan;100111.34;4916500;29;20626;-66
2023/03/30 03:06:02;;;;;;;6.03;1.60;;;15.40;99.90;;;15.72;nan;100100.81;4931940;29;20654;-66
2023/03/30 03:08:40;;;;;;;8.13;1.70;;;15.40;99.90;;;15.74;nan;100098.88;4900771;29;20716;-66
2023/03/30 03:11:08;;;;;;;1.87;1.50;;;15.50;99.90;;;15.75;nan;100101.34;4920343;29;20641;-68
2023/03/30 03:13:36;;;;;;;8.20;1.73;;;15.50;99.90;;;15.75;nan;100092.63;4917426;29;20686;-66
2023/03/30 03:16:06;;;;;;;5.60;1.67;;;15.50;99.90;;;15.77;nan;100103.81;4917772;29;20795;-66
2023/03/30 03:18:38;;;;;;;0.93;0.83;;;15.50;99.90;;;15.76;nan;100089.81;4915364;29;20676;-66
2023/03/30 03:21:08;;;;;;;4.67;1.90;;;15.50;99.90;;;15.79;nan;100101.84;4932495;29;20610;-65
2023/03/30 03:23:35;;;;;;;5.43;1.50;;;15.50;99.90;;;15.79;nan;100104.47;4917311;29;20771;-66
2023/03/30 03:26:04;;;;;;;5.20;1.50;;;15.50;99.90;;;15.84;nan;100094.31;4916351;29;20697;-66
2023/03/30 03:28:31;;;;;;;3.60;1.60;;;15.60;99.90;;;15.84;nan;100079.38;4914930;29;21023;-66
2023/03/30 03:30:58;;;;;;;1.80;1.20;;;15.60;99.90;;;15.87;nan;100079.03;4916704;29;20626;-67
2023/03/30 03:33:26;;;;;;;3.70;1.40;;;15.60;99.90;;;15.90;nan;100070.00;4916530;29;20626;-66
2023/03/30 03:35:54;;;;;;;3.60;1.57;;;15.60;99.90;;;15.95;nan;100070.38;4916600;29;21207;-66
2023/03/30 03:38:21;;;;;;;4.20;2.00;;;15.70;99.90;;;15.97;nan;100055.25;4917047;29;20688;-66
2023/03/30 03:40:50;;;;;;;2.17;1.57;;;15.70;99.90;;;16.01;nan;100049.53;4931094;29;20621;-66
2023/03/30 03:43:18;;;;;;;2.03;1.40;;;15.80;99.90;;;16.05;nan;100042.13;4913634;29;20645;-66
2023/03/30 03:45:46;;;;;;;4.97;1.60;;;15.80;99.90;;;16.05;nan;100036.84;4914151;29;20636;-66
2023/03/30 03:48:19;;;;;;;3.60;2.30;;;15.80;99.90;;;16.01;nan;100033.72;4915010;29;20656;-64
2023/03/30 03:50:56;;;;;;;2.10;1.50;;;15.80;99.90;;;16.03;nan;100036.19;4914424;29;21003;-65
2023/03/30 03:53:26;;;;;;;7.23;1.97;;;15.80;99.90;;;16.04;nan;100022.03;4917252;29;20707;-65
2023/03/30 03:55:54;;;;;;;4.53;1.37;;;15.70;99.90;;;16.03;nan;100020.41;4915030;29;20649;-66
2023/03/30 03:58:22;;;;;;;7.53;2.10;;;15.80;99.90;;;16.06;nan;100020.06;4914528;29;20673;-67
2023/03/30 04:00:49;;;;;;;4.60;1.97;;;15.80;99.90;;;16.05;nan;100007.91;4915359;29;20642;-68
2023/03/30 04:03:16;;;;;;;11.47;1.73;;;15.80;99.90;;;16.08;nan;99997.03;4916003;29;20629;-65
2023/03/30 04:05:43;;;;;;;3.70;1.40;;;15.80;99.90;;;16.09;nan;99996.06;4915493;29;20986;-66
2023/03/30 04:08:10;;;;;;;4.70;1.70;;;15.80;99.90;;;16.10;nan;99998.53;4915660;29;20661;-66
2023/03/30 04:10:40;;;;;;;10.00;1.90;;;15.90;99.90;;;16.10;nan;99997.72;4916005;29;20653;-66
2023/03/30 04:13:07;;;;;;;2.63;1.40;;;15.90;99.90;;;16.10;nan;100001.16;4916965;29;20637;-67
2023/03/30 04:15:34;;;;;;;9.10;1.57;;;15.90;99.90;;;16.11;nan;99994.09;4915853;29;20633;-66
2023/03/30 04:18:01;;;;;;;3.30;1.77;;;15.80;99.90;;;16.04;nan;99988.66;4916778;29;20661;-66
2023/03/30 04:20:29;;;;;;;4.20;1.50;;;15.80;99.90;;;15.93;nan;99978.44;4930419;29;20646;-66
2023/03/30 04:22:56;;;;;;;6.20;1.57;;;15.60;99.90;;;15.83;nan;99977.75;4915741;29;20630;-66
2023/03/30 04:25:24;;;;;;;6.40;1.23;;;15.60;99.90;;;15.79;nan;99967.69;4915641;29;20634;-65
2023/03/30 04:27:52;;;;;;;7.10;1.07;;;15.50;99.90;;;15.70;nan;99972.09;4915413;29;20654;-67
2023/03/30 04:30:21;;;;;;;1.77;1.67;;;15.40;99.90;;;15.61;nan;99980.94;4916644;29;20668;-67
2023/03/30 04:33:01;;;;;;;6.43;2.10;;;15.30;99.90;;;15.52;nan;99974.03;4915102;29;20626;-65
2023/03/30 04:35:31;;;;;;;4.23;2.10;;;15.20;99.90;;;15.46;nan;99980.72;4903047;29;21231;-65
2023/03/30 04:37:59;;;;;;;6.40;1.70;;;15.20;99.90;;;15.40;nan;99983.09;4915305;29;20666;-65
2023/03/30 04:40:26;;;;;;;1.97;1.77;;;15.10;99.90;;;15.32;nan;99989.16;4915305;29;20622;-66
2023/03/30 04:42:53;;;;;;;2.30;1.10;;;15.10;99.90;;;15.27;nan;99990.59;4916680;29;20624;-65
2023/03/30 04:45:20;;;;;;;2.83;1.50;;;15.00;99.90;;;15.19;nan;99990.53;4914613;29;20637;-65
2023/03/30 04:47:47;;;;;;;9.00;2.00;;;14.90;99.90;;;15.15;nan;99983.94;4915226;29;21302;-65
2023/03/30 04:50:15;;;;;;;4.30;1.63;;;14.90;99.90;;;15.11;nan;99965.06;4914742;29;21243;-65
2023/03/30 04:52:42;;;;;;;2.83;1.53;;;14.90;99.90;;;15.06;nan;99972.56;4915445;29;20693;-66
2023/03/30 04:55:10;;;;;;;3.43;1.70;;;14.80;99.90;;;15.05;nan;99983.25;4915239;29;20652;-66
2023/03/30 04:57:37;;;;;;;2.00;1.40;;;14.80;99.90;;;15.03;nan;99983.41;4913248;29;20670;-66
2023/03/30 05:00:08;;;;;;;1.50;1.40;;;14.80;99.90;;;15.02;nan;99986.16;4914051;29;21016;-66
2023/03/30 05:02:35;;;;;;;3.33;1.57;;;14.80;99.90;;;14.97;nan;99984.00;4915106;29;20638;-65
2023/03/30 05:05:02;;;;;;;2.40;2.00;;;14.70;99.90;;;14.98;nan;99990.91;4913309;29;20646;-66
2023/03/30 05:07:29;;;;;;;3.90;2.07;;;14.70;99.90;;;14.98;nan;99996.16;4912437;29;20654;-66
2023/03/30 05:09:56;;;;;;;3.60;2.00;;;14.70;99.90;;;14.98;nan;99995.34;4924167;29;21195;-66
2023/03/30 05:12:23;;;;;;;5.03;2.00;;;14.70;99.90;;;14.99;nan;99997.78;4915775;29;21043;-65
2023/03/30 05:14:50;;;;;;;3.40;1.73;;;14.70;99.90;;;15.02;nan;100015.06;4914763;29;20641;-65
2023/03/30 05:17:17;;;;;;;2.87;1.23;;;14.80;99.90;;;15.02;nan;100022.94;4915381;29;20712;-66
2023/03/30 05:19:45;;;;;;;2.40;1.60;;;14.80;99.90;;;15.01;nan;100030.03;4911994;29;20677;-66
2023/03/30 05:22:13;;;;;;;1.80;1.30;;;14.80;99.90;;;15.02;nan;100028.19;4913783;29;20621;-65
2023/03/30 05:24:40;;;;;;;2.53;1.80;;;14.80;99.90;;;15.00;nan;100036.25;4912815;29;21012;-65
2023/03/30 05:27:07;;;;;;;1.97;1.40;;;14.80;99.90;;;15.01;nan;100037.06;4914682;29;20665;-65
2023/03/30 05:29:34;;;;;;;5.97;2.23;;;14.80;99.90;;;15.02;nan;100049.22;4914786;29;20650;-66
2023/03/30 05:32:01;;;;;;;5.90;1.70;;;14.80;99.90;;;15.02;nan;100055.28;4915478;29;20614;-66
2023/03/30 05:34:28;;;;;;;2.17;1.60;;;14.80;99.90;;;14.98;nan;100048.69;4914212;29;20672;-65
2023/03/30 05:36:55;;;;;;;7.37;2.13;;;14.80;99.90;;;14.98;nan;100072.34;4913515;29;20645;-66
2023/03/30 05:39:22;;;;;;;2.97;1.90;;;14.80;99.90;;;14.86;nan;100088.50;4914095;29;20657;-66
2023/03/30 05:41:49;;;;;;;4.40;2.10;;;14.60;99.90;;;14.82;nan;100111.63;4914520;29;20642;-67
2023/03/30 05:44:17;;;;;;;11.30;2.30;;;14.60;99.90;;;14.77;nan;100130.44;4914349;29;21246;-65
2023/03/30 05:46:45;;;;;;;2.40;1.37;;;14.60;99.90;;;14.75;nan;100136.81;4911417;29;20661;-67
2023/03/30 05:49:12;;;;;;;4.40;1.63;;;14.50;99.90;;;14.71;nan;100152.03;4912569;29;20676;-65
2023/03/30 05:51:39;;;;;;;13.83;2.20;;;14.50;99.90;;;14.64;nan;100158.84;4912024;29;20638;-65
2023/03/30 05:54:08;;;;;;;9.03;2.20;;;14.40;99.90;;;14.61;nan;100147.81;4910339;29;21011;-65
2023/03/30 05:56:35;;;;;;;10.50;2.60;;;14.40;99.90;;;14.58;nan;100156.00;4911549;29;21216;-65
2023/03/30 05:59:04;;;;;;;4.97;2.57;;;14.40;99.90;;;14.55;nan;100154.47;4913304;29;21078;-65
2023/03/30 06:01:31;;;;;;;4.03;1.77;;;14.30;99.90;;;14.54;nan;100147.59;4912674;29;20645;-65
2023/03/30 06:03:58;;;;;;;6.60;2.33;;;14.30;99.90;;;14.52;nan;100152.13;4914735;29;20613;-66
2023/03/30 06:06:26;;;;;;;8.13;2.20;;;14.30;99.90;;;14.51;nan;100155.75;4912574;29;20668;-65
2023/03/30 06:08:52;;;;;;;12.00;2.07;;;14.30;99.90;;;14.50;nan;100127.03;4916106;29;20736;-65
2023/03/30 06:11:19;;;;;;;5.77;1.47;;;14.30;99.90;;;14.51;nan;100128.66;4918123;29;20667;-67
2023/03/30 06:13:46;;;;;;;1.43;1.33;;;14.30;99.90;;;14.51;nan;100128.66;4916801;29;20668;-64
2023/03/30 06:16:13;;;;;;;3.20;1.80;;;14.30;99.90;;;14.50;nan;100133.06;4914739;29;20634;-65
2023/03/30 06:18:40;;;;;;;6.03;2.50;;;14.30;99.90;;;14.50;nan;100150.66;4913398;29;20726;-68
2023/03/30 06:21:07;;;;;;;7.33;2.30;;;14.30;99.90;;;14.49;nan;100159.47;4917042;29;20630;-67
2023/03/30 06:23:36;;;;;;;2.63;1.93;;;14.30;99.90;;;14.46;nan;100162.44;4917516;29;20618;-65
2023/03/30 06:26:03;;;;;;;2.10;1.73;;;14.20;99.90;;;14.48;nan;100165.72;4917010;29;21008;-65
2023/03/30 06:28:30;;;;;;;5.70;2.40;;;14.30;99.90;;;14.48;nan;100170.97;4916035;29;21050;-65
2023/03/30 06:31:00;;;;;;;3.23;1.30;;;14.30;99.90;;;14.47;nan;100164.88;4917202;29;20634;-65
2023/03/30 06:33:27;;;;;;;9.77;2.83;;;14.20;99.90;;;14.51;nan;100139.16;4917385;29;20638;-65
2023/03/30 06:35:54;;;;;;;3.13;2.00;;;14.30;99.90;;;14.45;nan;100127.47;4917331;29;21023;-66
2023/03/30 06:38:22;;;;;;;8.67;2.40;;;14.30;99.90;;;14.45;nan;100119.59;4917369;29;20674;-66
2023/03/30 06:40:50;;;;;;;7.10;2.00;;;14.20;99.90;;;14.41;nan;100113.00;4918278;29;20613;-67
2023/03/30 06:43:21;;;;;;;2.83;2.50;;;14.20;99.90;;;14.35;nan;100124.03;4917353;29;20642;-65
2023/03/30 06:45:53;;;;;;;4.30;2.13;;;14.10;99.90;;;14.35;nan;100116.16;4914911;29;20633;-64
2023/03/30 06:48:25;;;;;;;3.83;2.10;;;14.10;99.90;;;14.31;nan;100114.00;4916320;29;20669;-68
2023/03/30 06:50:54;;;;;;;3.67;2.27;;;14.10;99.90;;;14.32;nan;100113.03;4909896;29;20642;-66
2023/03/30 06:53:22;;;;;;;5.07;2.80;;;14.10;99.90;;;14.31;nan;100109.56;4915764;29;20887;-65
2023/03/30 06:55:56;;;;;;;4.83;2.30;;;14.10;99.90;;;14.30;nan;100104.47;4918082;29;20629;-66
2023/03/30 06:58:25;;;;;;;1.70;1.60;;;14.10;99.90;;;14.31;nan;100109.56;4917351;29;21267;-67
2023/03/30 07:00:53;;;;;;;3.27;1.70;;;14.10;99.90;;;14.22;nan;100102.56;4929594;29;20649;-66
2023/03/30 07:03:20;;;;;;;2.00;1.90;;;14.00;99.90;;;14.24;nan;100110.28;4924698;29;21042;-65
2023/03/30 07:05:49;;;;;;;5.30;2.30;;;14.00;99.90;;;14.24;nan;100112.91;4922535;29;20648;-66
2023/03/30 07:08:17;;;;;;;2.83;2.40;;;14.00;99.90;;;14.24;nan;100102.41;4934726;29;20653;-65
2023/03/30 07:10:46;;;;;;;2.70;2.07;;;14.00;99.90;;;14.24;nan;100105.88;4929256;29;20657;-65
2023/03/30 07:13:15;;;;;;;1.97;1.83;;;14.00;99.90;;;14.22;nan;100096.47;4915328;29;20657;-67
2023/03/30 07:15:44;;;;;;;5.70;2.00;;;14.00;99.90;;;14.20;nan;100099.25;4916439;29;20629;-65
2023/03/30 07:18:12;;;;;;;1.90;1.80;;;14.00;99.90;;;14.19;nan;100100.22;4921708;29;20662;-65
2023/03/30 07:20:39;;;;;;;2.30;2.07;;;14.00;99.90;;;14.17;nan;100103.97;4913282;29;20630;-65
2023/03/30 07:23:06;;;;;;;2.40;2.20;;;14.00;99.90;;;14.17;nan;100103.97;4917249;29;20633;-65
2023/03/30 07:25:33;;;;;;;2.50;2.30;;;14.00;99.90;;;14.18;nan;100110.88;4917091;29;20681;-67
2023/03/30 07:28:01;;;;;;;4.00;2.13;;;14.00;99.90;;;14.21;nan;100105.31;4917968;29;20687;-66
2023/03/30 07:30:28;;;;;;;5.27;2.20;;;14.00;99.90;;;14.19;nan;100087.09;4916262;29;20638;-64
2023/03/30 07:32:55;;;;;;;1.37;1.37;;;14.00;99.90;;;14.14;nan;100063.09;4917153;29;20670;-65
2023/03/30 07:35:24;;;;;;;1.53;1.23;;;14.00;99.90;;;14.10;nan;100050.44;4915995;29;20653;-65
2023/03/30 07:37:51;;;;;;;2.03;1.80;;;13.90;99.90;;;14.10;nan;100061.72;4916015;29;20658;-65
2023/03/30 07:40:28;;;;;;;4.20;2.80;;;13.90;99.90;;;14.09;nan;100075.00;4916866;29;20692;-66
2023/03/30 07:42:55;;;;;;;1.33;1.13;;;13.90;99.90;;;14.06;nan;100070.03;4924159;29;20640;-65
2023/03/30 07:45:22;;;;;;;1.10;1.10;;;13.90;99.90;;;14.07;nan;100050.72;4935753;29;20648;-65
2023/03/30 07:47:49;;;;;;;4.10;2.67;;;13.90;99.90;;;14.06;nan;100059.53;4930899;29;20676;-66
2023/03/30 07:50:16;;;;;;;3.70;2.97;;;13.80;99.90;;;14.08;nan;100065.47;4913208;29;21015;-66
2023/03/30 07:52:43;;;;;;;3.50;2.47;;;13.80;99.90;;;14.11;nan;100109.78;4914161;29;20685;-65
2023/03/30 07:55:11;;;;;;;3.40;2.60;;;13.90;99.90;;;14.13;nan;100089.47;4915337;29;20638;-65
2023/03/30 07:57:38;;;;;;;3.27;2.43;;;13.90;99.90;;;14.14;nan;100083.28;4916551;29;20654;-64
2023/03/30 08:00:09;;;;;;;4.40;2.33;;;13.90;99.90;;;14.20;nan;100082.69;4914993;29;20673;-65
2023/03/30 08:02:36;;;;;;;1.13;0.60;;;13.90;99.90;;;14.22;nan;100065.00;4916360;29;20634;-65
2023/03/30 08:05:04;;;;;;;1.13;1.13;;;14.00;99.90;;;14.30;nan;100088.72;4913357;29;20634;-65
2023/03/30 08:07:33;;;;;;;1.20;1.20;;;14.10;99.90;;;14.38;nan;100092.28;4914940;29;20664;-64
2023/03/30 08:10:00;;;;;;;1.97;1.37;;;14.20;99.90;;;14.41;nan;100102.50;4914910;29;20642;-64
2023/03/30 08:12:27;;;;;;;1.00;1.00;;;14.20;99.90;;;14.41;nan;100091.16;4913896;29;20692;-64
2023/03/30 08:14:54;;;;;;;1.33;1.07;;;14.20;99.90;;;14.49;nan;100104.38;4916539;29;20692;-66
2023/03/30 08:17:21;;;;;;;0.97;0.97;;;14.20;99.90;;;14.52;nan;100093.56;4915505;29;20716;-66
2023/03/30 08:19:48;;;;;;;1.20;1.10;;;14.30;99.90;;;14.49;nan;100094.69;4912197;29;20681;-67
2023/03/30 08:22:15;;;;;;;7.40;1.40;;;14.30;99.90;;;14.46;nan;100099.44;4910750;29;20634;-66
2023/03/30 08:24:42;;;;;;;1.13;0.77;;;14.20;99.90;;;14.48;nan;100107.97;4915336;29;21254;-66
2023/03/30 08:27:10;;;;;;;1.60;0.77;;;14.30;99.90;;;14.40;nan;100116.56;4914665;29;21016;-65
2023/03/30 08:29:36;;;;;;;2.70;1.40;;;14.20;99.90;;;14.40;nan;100115.75;4915644;29;20653;-66
2023/03/30 08:32:03;;;;;;;2.17;1.40;;;14.20;99.90;;;14.38;nan;100115.06;4914711;29;20634;-66
2023/03/30 08:34:31;;;;;;;1.43;1.33;;;14.20;99.90;;;14.34;nan;100113.69;4915947;29;20645;-66
2023/03/30 08:36:59;;;;;;;1.07;0.77;;;14.10;99.90;;;14.25;nan;100115.38;4912427;29;21013;-66
2023/03/30 08:39:27;;;;;;;0.60;0.60;;;14.00;99.90;;;14.15;nan;100127.72;4914756;29;20733;-66
2023/03/30 08:42:30;;;;;;;2.00;1.03;;;13.90;99.90;;;14.11;nan;100112.41;4914469;29;20685;-66
2023/03/30 08:45:03;;;;;;;1.53;1.43;;;13.90;99.90;;;14.14;nan;100117.38;4925483;29;20637;-66
2023/03/30 08:47:37;;;;;;;2.13;1.90;;;13.90;99.90;;;14.22;nan;100125.34;4913553;29;20678;-67
2023/03/30 08:50:17;;;;;;;2.47;2.20;;;14.00;99.90;;;14.48;nan;100136.84;4928509;29;20646;-66
2023/03/30 08:52:46;;;;;;;2.47;1.80;;;14.20;99.90;;;15.35;nan;100125.50;4913973;29;20636;-66
2023/03/30 08:55:25;;;;;;;1.53;1.43;;;14.90;99.90;;;16.73;nan;100109.47;4913684;29;20649;-64
2023/03/30 08:57:58;;;;;;;1.47;1.37;;;16.20;99.90;;;17.06;nan;100103.25;4914084;29;21273;-64
2023/03/30 09:00:40;;;;;;;1.43;1.33;;;16.90;99.90;;;16.56;nan;100106.97;4914440;29;21213;-64
2023/03/30 09:03:41;;;;;;;11.40;1.90;;;16.50;99.90;;;16.02;nan;100116.09;4931986;28;21074;-66
2023/03/30 09:06:43;;;;;;;1.60;1.50;;;16.00;99.90;;;15.79;nan;100130.78;4910917;29;21408;-65
2023/03/30 09:09:15;;;;;;;5.50;2.00;;;15.70;99.90;;;15.75;nan;100106.59;4922752;29;20827;-66
2023/03/30 09:11:42;;;;;;;0.90;0.90;;;15.60;99.90;;;15.53;nan;100092.16;4913245;29;20634;-66
2023/03/30 09:14:36;;;;;;;0.63;0.63;;;15.40;99.90;;;15.43;nan;100099.34;4913564;29;20701;-65
2023/03/30 09:17:15;;;;;;;2.47;1.80;;;15.20;99.90;;;15.37;nan;100110.44;4928684;29;21192;-66
2023/03/30 09:20:15;;;;;;;1.00;1.00;;;15.10;99.90;;;15.42;nan;100128.34;4913820;29;20728;-67
2023/03/30 09:22:43;;;;;;;6.83;1.80;;;15.20;99.90;;;15.51;nan;100135.38;4924237;29;21010;-65
2023/03/30 09:25:18;;;;;;;5.10;1.83;;;15.20;99.90;;;15.53;nan;100146.56;4929076;29;20704;-67
2023/03/30 09:27:59;;;;;;;1.03;1.00;;;15.20;99.90;;;15.56;nan;100143.63;4928789;29;20657;-68
2023/03/30 09:30:45;;;;;;;2.20;1.60;;;15.30;99.90;;;15.50;nan;100149.50;4914642;29;20634;-66
2023/03/30 09:33:45;;;;;;;0.90;0.90;;;15.20;99.90;;;15.44;nan;100110.66;4913178;29;21227;-68
2023/03/30 09:36:30;;;;;;;1.03;1.03;;;15.20;99.90;;;15.48;nan;100140.94;4911752;29;20641;-67
2023/03/30 09:38:57;;;;;;;2.80;1.47;;;15.20;99.90;;;15.46;nan;100159.47;4909586;29;20642;-67
2023/03/30 09:41:48;;;;;;;2.10;1.20;;;15.20;99.90;;;15.52;nan;100142.28;4895993;29;20690;-66
2023/03/30 09:44:34;;;;;;;3.57;2.00;;;15.20;99.90;;;15.68;nan;100147.66;4908464;29;20637;-66
2023/03/30 09:47:20;;;;;;;1.83;1.73;;;15.40;99.90;;;15.87;nan;100136.91;4911332;29;20641;-66
2023/03/30 09:49:48;;;;;;;4.17;1.70;;;15.50;99.90;;;16.03;nan;100151.97;4927021;29;20646;-67
2023/03/30 09:52:21;;;;;;;4.10;2.07;;;15.70;99.90;;;16.13;nan;100165.84;4927417;29;20645;-64
2023/03/30 09:54:48;;;;;;;2.30;1.87;;;15.80;99.90;;;16.20;nan;100159.81;4926126;29;20697;-65
2023/03/30 09:57:31;;;;;;;3.57;2.17;;;15.90;99.90;;;16.22;nan;100136.78;4912768;29;21219;-65
2023/03/30 10:00:00;;;;;;;1.57;1.50;;;15.90;99.90;;;16.24;nan;100142.72;4905630;29;20717;-65
2023/03/30 10:02:30;;;;;;;1.73;1.63;;;15.90;99.90;;;16.29;nan;100155.41;4927315;29;21139;-66
2023/03/30 10:05:02;;;;;;;1.53;1.40;;;16.00;99.90;;;16.38;nan;100149.16;4908027;29;20631;-68
2023/03/30 10:07:39;;;;;;;2.23;2.03;;;16.10;99.90;;;16.50;nan;100158.47;4910810;29;21113;-68
2023/03/30 10:10:30;;;;;;;1.60;1.40;;;16.20;99.90;;;16.57;nan;100151.56;4915841;29;20644;-67
2023/03/30 10:13:11;;;;;;;1.70;1.60;;;16.30;99.90;;;16.66;nan;100160.31;4927549;29;21019;-70
2023/03/30 10:15:44;;;;;;;3.63;1.90;;;16.40;99.90;;;16.73;nan;100158.69;4925777;29;20704;-66
2023/03/30 10:18:22;;;;;;;5.53;2.80;;;16.40;99.90;;;16.80;nan;100162.34;4927051;29;20704;-67
2023/03/30 10:21:03;;;;;;;7.33;2.90;;;16.60;99.90;;;16.83;nan;100168.09;4927876;29;20669;-68
2023/03/30 10:23:38;;;;;;;6.13;2.73;;;16.60;99.90;;;16.87;nan;100172.06;4912417;29;20634;-66
2023/03/30 10:26:18;;;;;;;5.57;2.13;;;16.60;99.90;;;16.92;nan;100166.31;4919236;29;20645;-67
2023/03/30 10:29:11;;;;;;;4.43;2.20;;;16.60;99.90;;;16.98;nan;100165.66;4910282;29;20668;-67
2023/03/30 10:31:44;;;;;;;2.17;2.00;;;16.70;99.90;;;16.98;nan;100166.50;4908935;29;20638;-67
2023/03/30 10:34:22;;;;;;;3.07;2.10;;;16.70;99.90;;;16.99;nan;100165.50;4928843;29;20626;-67
2023/03/30 10:36:53;;;;;;;2.47;2.37;;;16.80;99.90;;;17.00;nan;100172.44;4929294;29;20685;-65
2023/03/30 10:39:33;;;;;;;3.50;2.20;;;16.80;99.90;;;17.01;nan;100176.69;4928935;29;20733;-67
2023/03/30 10:42:03;;;;;;;2.03;1.93;;;16.80;99.90;;;17.00;nan;100163.69;4929339;29;20689;-67
2023/03/30 10:44:35;;;;;;;1.47;1.47;;;16.80;99.90;;;16.90;nan;100166.50;4928715;29;20634;-66
2023/03/30 10:47:40;;;;;;;2.73;1.80;;;16.70;99.90;;;16.84;nan;100151.34;4910522;29;21097;-66
2023/03/30 10:50:34;;;;;;;2.13;2.03;;;16.60;99.90;;;16.78;nan;100154.59;4912427;29;20635;-66
2023/03/30 10:53:38;;;;;;;1.97;1.87;;;16.50;99.90;;;16.78;nan;100154.59;4899403;29;20637;-73